sensor_id;sensor_type;location;lat;lon;timestamp;temperature;humidity
3944;DHT22;1986;52.546;13.428;2022-09-09T00:01:53;16.80;99.90
3944;DHT22;1986;52.546;13.428;2022-09-09T00:04:26;16.80;99.90
3944;DHT22;1986;52.546;13.428;2022-09-09T00:07:01;16.80;99.90
3944;DHT22;1986;52.546;13.428;2022-09-09T00:09:31;16.80;99.90
3944;DHT22;1986;52.546;13.428;2022-09-09T00:12:10;16.90;99.90
3944;DHT22;1986;52.546;13.428;2022-09-09T00:14:44;16.90;99.90
3944;DHT22;1986;52.546;13.428;2022-09-09T00:17:31;16.90;99.90
3944;DHT22;1986;52.546;13.428;2022-09-09T00:20:02;16.90;99.90
3944;DHT22;1986;52.546;13.428;2022-09-09T00:22:31;17.00;99.90
3944;DHT22;1986;52.546;13.428;2022-09-09T00:25:08;17.00;99.90
3944;DHT22;1986;52.546;13.428;2022-09-09T00:27:41;17.00;99.90
3944;DHT22;1986;52.546;13.428;2022-09-09T00:30:16;17.00;99.90
3944;DHT22;1986;52.546;13.428;2022-09-09T00:32:47;17.00;99.90
3944;DHT22;1986;52.546;13.428;2022-09-09T00:35:18;17.10;99.90
3944;DHT22;1986;52.546;13.428;2022-09-09T00:37:46;17.10;99.90
3944;DHT22;1986;52.546;13.428;2022-09-09T00:40:22;17.10;99.90
3944;DHT22;1986;52.546;13.428;2022-09-09T00:42:52;17.10;99.90
3944;DHT22;1986;52.546;13.428;2022-09-09T00:45:36;17.10;99.90
3944;DHT22;1986;52.546;13.428;2022-09-09T00:48:08;17.10;99.90
3944;DHT22;1986;52.546;13.428;2022-09-09T00:50:45;17.20;99.90
3944;DHT22;1986;52.546;13.428;2022-09-09T00:53:28;17.10;99.90
3944;DHT22;1986;52.546;13.428;2022-09-09T00:56:03;17.20;99.90
3944;DHT22;1986;52.546;13.428;2022-09-09T00:58:32;17.20;99.90
3944;DHT22;1986;52.546;13.428;2022-09-09T01:01:02;17.30;99.90
3944;DHT22;1986;52.546;13.428;2022-09-09T01:03:37;17.30;99.90
3944;DHT22;1986;52.546;13.428;2022-09-09T01:06:16;17.40;99.90
3944;DHT22;1986;52.546;13.428;2022-09-09T01:09:04;17.40;99.90
3944;DHT22;1986;52.546;13.428;2022-09-09T01:11:41;17.40;99.90
3944;DHT22;1986;52.546;13.428;2022-09-09T01:14:16;17.40;99.90
3944;DHT22;1986;52.546;13.428;2022-09-09T01:16:47;17.40;99.90
3944;DHT22;1986;52.546;13.428;2022-09-09T01:19:20;17.40;99.90
3944;DHT22;1986;52.546;13.428;2022-09-09T01:21:55;17.40;99.90
3944;DHT22;1986;52.546;13.428;2022-09-09T01:24:30;17.40;99.90
3944;DHT22;1986;52.546;13.428;2022-09-09T01:27:04;17.40;99.90
3944;DHT22;1986;52.546;13.428;2022-09-09T01:29:32;17.40;99.90
3944;DHT22;1986;52.546;13.428;2022-09-09T01:32:01;17.50;99.90
3944;DHT22;1986;52.546;13.428;2022-09-09T01:34:30;17.40;99.90
3944;DHT22;1986;52.546;13.428;2022-09-09T01:37:01;17.40;99.90
3944;DHT22;1986;52.546;13.428;2022-09-09T01:39:30;17.40;99.90
3944;DHT22;1986;52.546;13.428;2022-09-09T01:41:57;17.50;99.90
3944;DHT22;1986;52.546;13.428;2022-09-09T01:44:28;17.50;99.90
3944;DHT22;1986;52.546;13.428;2022-09-09T01:46:56;17.40;99.90
3944;DHT22;1986;52.546;13.428;2022-09-09T01:49:23;17.40;99.90
3944;DHT22;1986;52.546;13.428;2022-09-09T01:51:52;17.40;99.90
3944;DHT22;1986;52.546;13.428;2022-09-09T01:54:21;17.30;99.90
3944;DHT22;1986;52.546;13.428;2022-09-09T01:56:56;17.30;99.90
3944;DHT22;1986;52.546;13.428;2022-09-09T01:59:50;17.30;99.90
3944;DHT22;1986;52.546;13.428;2022-09-09T02:02:20;17.30;99.90
3944;DHT22;1986;52.546;13.428;2022-09-09T02:04:50;17.30;99.90
3944;DHT22;1986;52.546;13.428;2022-09-09T02:07:31;17.20;99.90
3944;DHT22;1986;52.546;13.428;2022-09-09T02:10:05;17.20;99.90
3944;DHT22;1986;52.546;13.428;2022-09-09T02:12:36;17.20;99.90
3944;DHT22;1986;52.546;13.428;2022-09-09T02:15:11;17.20;99.90
3944;DHT22;1986;52.546;13.428;2022-09-09T02:17:41;17.20;99.90
3944;DHT22;1986;52.546;13.428;2022-09-09T02:20:12;17.30;99.90
3944;DHT22;1986;52.546;13.428;2022-09-09T02:22:42;17.20;99.90
3944;DHT22;1986;52.546;13.428;2022-09-09T02:25:12;17.20;99.90
3944;DHT22;1986;52.546;13.428;2022-09-09T02:27:41;17.20;99.90
3944;DHT22;1986;52.546;13.428;2022-09-09T02:30:12;17.20;99.90
3944;DHT22;1986;52.546;13.428;2022-09-09T02:32:40;17.20;99.90
3944;DHT22;1986;52.546;13.428;2022-09-09T02:35:10;17.20;99.90
3944;DHT22;1986;52.546;13.428;2022-09-09T02:37:42;17.20;99.90
3944;DHT22;1986;52.546;13.428;2022-09-09T02:40:13;17.10;99.90
3944;DHT22;1986;52.546;13.428;2022-09-09T02:42:41;17.20;99.90
3944;DHT22;1986;52.546;13.428;2022-09-09T02:45:11;17.10;99.90
3944;DHT22;1986;52.546;13.428;2022-09-09T02:47:41;17.10;99.90
3944;DHT22;1986;52.546;13.428;2022-09-09T02:50:13;17.10;99.90
3944;DHT22;1986;52.546;13.428;2022-09-09T02:52:52;17.10;99.90
3944;DHT22;1986;52.546;13.428;2022-09-09T02:55:27;17.00;99.90
3944;DHT22;1986;52.546;13.428;2022-09-09T02:57:58;17.00;99.90
3944;DHT22;1986;52.546;13.428;2022-09-09T03:00:30;17.00;99.90
3944;DHT22;1986;52.546;13.428;2022-09-09T03:02:59;17.00;99.90
3944;DHT22;1986;52.546;13.428;2022-09-09T03:05:26;17.00;99.90
3944;DHT22;1986;52.546;13.428;2022-09-09T03:07:53;17.00;99.90
3944;DHT22;1986;52.546;13.428;2022-09-09T03:10:20;16.90;99.90
3944;DHT22;1986;52.546;13.428;2022-09-09T03:12:47;16.90;99.90
3944;DHT22;1986;52.546;13.428;2022-09-09T03:15:14;16.90;99.90
3944;DHT22;1986;52.546;13.428;2022-09-09T03:17:42;16.90;99.90
3944;DHT22;1986;52.546;13.428;2022-09-09T03:20:09;16.90;99.90
3944;DHT22;1986;52.546;13.428;2022-09-09T03:22:37;16.90;99.90
3944;DHT22;1986;52.546;13.428;2022-09-09T03:25:05;16.80;99.90
3944;DHT22;1986;52.546;13.428;2022-09-09T03:27:32;16.80;99.90
3944;DHT22;1986;52.546;13.428;2022-09-09T03:29:59;16.80;99.90
3944;DHT22;1986;52.546;13.428;2022-09-09T03:32:29;16.80;99.90
3944;DHT22;1986;52.546;13.428;2022-09-09T03:35:00;16.80;99.90
3944;DHT22;1986;52.546;13.428;2022-09-09T03:37:27;16.80;99.90
3944;DHT22;1986;52.546;13.428;2022-09-09T03:39:53;16.80;99.90
3944;DHT22;1986;52.546;13.428;2022-09-09T03:42:21;16.80;99.90
3944;DHT22;1986;52.546;13.428;2022-09-09T03:44:48;16.80;99.90
3944;DHT22;1986;52.546;13.428;2022-09-09T03:47:17;16.80;99.90
3944;DHT22;1986;52.546;13.428;2022-09-09T03:49:45;16.80;99.90
3944;DHT22;1986;52.546;13.428;2022-09-09T03:52:13;16.80;99.90
3944;DHT22;1986;52.546;13.428;2022-09-09T03:54:40;16.80;99.90
3944;DHT22;1986;52.546;13.428;2022-09-09T03:57:08;16.80;99.90
3944;DHT22;1986;52.546;13.428;2022-09-09T03:59:39;16.70;99.90
3944;DHT22;1986;52.546;13.428;2022-09-09T04:02:05;16.70;99.90
3944;DHT22;1986;52.546;13.428;2022-09-09T04:04:32;16.70;99.90
3944;DHT22;1986;52.546;13.428;2022-09-09T04:07:02;16.70;99.90
3944;DHT22;1986;52.546;13.428;2022-09-09T04:09:33;16.70;99.90
3944;DHT22;1986;52.546;13.428;2022-09-09T04:12:00;16.70;99.90
3944;DHT22;1986;52.546;13.428;2022-09-09T04:14:27;16.70;99.90
3944;DHT22;1986;52.546;13.428;2022-09-09T04:16:54;16.70;99.90
3944;DHT22;1986;52.546;13.428;2022-09-09T04:19:23;16.70;99.90
3944;DHT22;1986;52.546;13.428;2022-09-09T04:21:50;16.60;99.90
3944;DHT22;1986;52.546;13.428;2022-09-09T04:24:17;16.60;99.90
3944;DHT22;1986;52.546;13.428;2022-09-09T04:26:45;16.60;99.90
3944;DHT22;1986;52.546;13.428;2022-09-09T04:29:12;16.60;99.90
3944;DHT22;1986;52.546;13.428;2022-09-09T04:31:39;16.60;99.90
3944;DHT22;1986;52.546;13.428;2022-09-09T04:34:07;16.60;99.90
3944;DHT22;1986;52.546;13.428;2022-09-09T04:36:34;16.60;99.90
3944;DHT22;1986;52.546;13.428;2022-09-09T04:39:01;16.60;99.90
3944;DHT22;1986;52.546;13.428;2022-09-09T04:41:29;16.60;99.90
3944;DHT22;1986;52.546;13.428;2022-09-09T04:43:59;16.60;99.90
3944;DHT22;1986;52.546;13.428;2022-09-09T04:46:28;16.50;99.90
3944;DHT22;1986;52.546;13.428;2022-09-09T04:48:54;16.50;99.90
3944;DHT22;1986;52.546;13.428;2022-09-09T04:51:25;16.50;99.90
3944;DHT22;1986;52.546;13.428;2022-09-09T04:53:53;16.50;99.90
3944;DHT22;1986;52.546;13.428;2022-09-09T04:56:22;16.40;99.90
3944;DHT22;1986;52.546;13.428;2022-09-09T04:58:52;16.30;99.90
3944;DHT22;1986;52.546;13.428;2022-09-09T05:01:24;16.30;99.90
3944;DHT22;1986;52.546;13.428;2022-09-09T05:03:59;16.30;99.90
3944;DHT22;1986;52.546;13.428;2022-09-09T05:06:28;16.30;99.90
3944;DHT22;1986;52.546;13.428;2022-09-09T05:08:57;16.30;99.90
3944;DHT22;1986;52.546;13.428;2022-09-09T05:11:28;16.40;99.90
3944;DHT22;1986;52.546;13.428;2022-09-09T05:13:56;16.40;99.90
3944;DHT22;1986;52.546;13.428;2022-09-09T05:16:24;16.40;99.90
3944;DHT22;1986;52.546;13.428;2022-09-09T05:18:53;16.40;99.90
3944;DHT22;1986;52.546;13.428;2022-09-09T05:21:22;16.40;99.90
3944;DHT22;1986;52.546;13.428;2022-09-09T05:23:50;16.40;99.90
3944;DHT22;1986;52.546;13.428;2022-09-09T05:26:19;16.40;99.90
3944;DHT22;1986;52.546;13.428;2022-09-09T05:28:46;16.40;99.90
3944;DHT22;1986;52.546;13.428;2022-09-09T05:31:15;16.50;99.90
3944;DHT22;1986;52.546;13.428;2022-09-09T05:33:45;16.60;99.90
3944;DHT22;1986;52.546;13.428;2022-09-09T05:36:16;16.70;99.90
3944;DHT22;1986;52.546;13.428;2022-09-09T05:38:44;16.90;99.90
3944;DHT22;1986;52.546;13.428;2022-09-09T05:41:11;17.00;99.90
3944;DHT22;1986;52.546;13.428;2022-09-09T05:43:41;17.00;99.90
3944;DHT22;1986;52.546;13.428;2022-09-09T05:46:11;17.10;99.90
3944;DHT22;1986;52.546;13.428;2022-09-09T05:48:40;17.10;99.90
3944;DHT22;1986;52.546;13.428;2022-09-09T05:51:14;17.10;99.90
3944;DHT22;1986;52.546;13.428;2022-09-09T05:53:42;17.20;99.90
3944;DHT22;1986;52.546;13.428;2022-09-09T05:56:11;17.20;99.90
3944;DHT22;1986;52.546;13.428;2022-09-09T05:58:40;17.30;99.90
3944;DHT22;1986;52.546;13.428;2022-09-09T06:01:12;17.40;99.90
3944;DHT22;1986;52.546;13.428;2022-09-09T06:03:42;17.50;99.90
3944;DHT22;1986;52.546;13.428;2022-09-09T06:06:12;17.80;99.90
3944;DHT22;1986;52.546;13.428;2022-09-09T06:08:41;17.90;99.90
3944;DHT22;1986;52.546;13.428;2022-09-09T06:11:11;18.40;99.90
3944;DHT22;1986;52.546;13.428;2022-09-09T06:13:38;18.80;99.90
3944;DHT22;1986;52.546;13.428;2022-09-09T06:16:05;18.50;99.90
3944;DHT22;1986;52.546;13.428;2022-09-09T06:18:36;18.50;99.90
3944;DHT22;1986;52.546;13.428;2022-09-09T06:21:06;18.60;99.90
3944;DHT22;1986;52.546;13.428;2022-09-09T06:23:44;18.60;99.90
3944;DHT22;1986;52.546;13.428;2022-09-09T06:26:15;18.60;99.90
3944;DHT22;1986;52.546;13.428;2022-09-09T06:28:42;18.60;99.90
3944;DHT22;1986;52.546;13.428;2022-09-09T06:31:12;18.30;99.90
3944;DHT22;1986;52.546;13.428;2022-09-09T06:33:49;19.00;99.90
3944;DHT22;1986;52.546;13.428;2022-09-09T06:36:19;19.60;99.90
3944;DHT22;1986;52.546;13.428;2022-09-09T06:38:48;19.30;99.90
3944;DHT22;1986;52.546;13.428;2022-09-09T06:41:16;18.40;99.90
3944;DHT22;1986;52.546;13.428;2022-09-09T06:43:44;18.40;99.90
3944;DHT22;1986;52.546;13.428;2022-09-09T06:46:13;18.50;99.90
3944;DHT22;1986;52.546;13.428;2022-09-09T06:48:41;18.10;99.90
3944;DHT22;1986;52.546;13.428;2022-09-09T06:51:12;17.70;99.90
3944;DHT22;1986;52.546;13.428;2022-09-09T06:53:40;17.70;99.90
3944;DHT22;1986;52.546;13.428;2022-09-09T06:56:20;17.40;99.90
3944;DHT22;1986;52.546;13.428;2022-09-09T06:58:49;17.50;99.90
3944;DHT22;1986;52.546;13.428;2022-09-09T07:01:17;17.50;99.90
3944;DHT22;1986;52.546;13.428;2022-09-09T07:03:46;17.90;99.90
3944;DHT22;1986;52.546;13.428;2022-09-09T07:06:17;18.20;99.90
3944;DHT22;1986;52.546;13.428;2022-09-09T07:08:48;18.50;99.90
3944;DHT22;1986;52.546;13.428;2022-09-09T07:11:19;18.70;99.90
3944;DHT22;1986;52.546;13.428;2022-09-09T07:13:47;18.50;99.90
3944;DHT22;1986;52.546;13.428;2022-09-09T07:16:17;19.10;99.90
3944;DHT22;1986;52.546;13.428;2022-09-09T07:18:44;19.80;99.90
3944;DHT22;1986;52.546;13.428;2022-09-09T07:21:13;19.80;99.90
3944;DHT22;1986;52.546;13.428;2022-09-09T07:23:41;19.20;99.90
3944;DHT22;1986;52.546;13.428;2022-09-09T07:26:09;19.30;99.90
3944;DHT22;1986;52.546;13.428;2022-09-09T07:28:38;19.90;99.90
3944;DHT22;1986;52.546;13.428;2022-09-09T07:31:06;20.50;99.90
3944;DHT22;1986;52.546;13.428;2022-09-09T07:33:35;20.70;99.90
3944;DHT22;1986;52.546;13.428;2022-09-09T07:36:04;21.20;99.90
3944;DHT22;1986;52.546;13.428;2022-09-09T07:38:31;21.20;99.90
3944;DHT22;1986;52.546;13.428;2022-09-09T07:41:03;21.40;99.90
3944;DHT22;1986;52.546;13.428;2022-09-09T07:43:31;21.30;99.90
3944;DHT22;1986;52.546;13.428;2022-09-09T07:46:00;20.60;99.90
3944;DHT22;1986;52.546;13.428;2022-09-09T07:48:28;20.90;99.90
3944;DHT22;1986;52.546;13.428;2022-09-09T07:51:06;20.50;99.90
3944;DHT22;1986;52.546;13.428;2022-09-09T07:53:34;21.00;99.90
3944;DHT22;1986;52.546;13.428;2022-09-09T07:56:05;21.80;99.90
3944;DHT22;1986;52.546;13.428;2022-09-09T07:58:32;21.90;99.90
3944;DHT22;1986;52.546;13.428;2022-09-09T08:01:01;22.20;99.90
3944;DHT22;1986;52.546;13.428;2022-09-09T08:03:32;21.50;99.90
3944;DHT22;1986;52.546;13.428;2022-09-09T08:06:01;21.10;99.90
3944;DHT22;1986;52.546;13.428;2022-09-09T08:08:28;21.10;99.90
3944;DHT22;1986;52.546;13.428;2022-09-09T08:11:02;20.90;99.90
3944;DHT22;1986;52.546;13.428;2022-09-09T08:13:33;20.80;99.90
3944;DHT22;1986;52.546;13.428;2022-09-09T08:16:11;20.90;99.90
3944;DHT22;1986;52.546;13.428;2022-09-09T08:18:38;20.60;99.90
3944;DHT22;1986;52.546;13.428;2022-09-09T08:21:07;20.60;99.90
3944;DHT22;1986;52.546;13.428;2022-09-09T08:23:37;20.50;99.90
3944;DHT22;1986;52.546;13.428;2022-09-09T08:26:10;20.60;99.90
3944;DHT22;1986;52.546;13.428;2022-09-09T08:28:38;20.70;99.90
3944;DHT22;1986;52.546;13.428;2022-09-09T08:31:08;20.70;99.90
3944;DHT22;1986;52.546;13.428;2022-09-09T08:33:35;20.80;99.90
3944;DHT22;1986;52.546;13.428;2022-09-09T08:36:04;20.80;99.90
3944;DHT22;1986;52.546;13.428;2022-09-09T08:38:33;20.60;99.90
3944;DHT22;1986;52.546;13.428;2022-09-09T08:41:12;20.60;99.90
3944;DHT22;1986;52.546;13.428;2022-09-09T08:43:46;20.70;99.90
3944;DHT22;1986;52.546;13.428;2022-09-09T08:46:20;20.40;99.90
3944;DHT22;1986;52.546;13.428;2022-09-09T08:48:53;20.20;99.90
3944;DHT22;1986;52.546;13.428;2022-09-09T08:51:26;20.30;99.90
3944;DHT22;1986;52.546;13.428;2022-09-09T08:53:55;20.10;99.90
3944;DHT22;1986;52.546;13.428;2022-09-09T08:56:27;19.80;99.90
3944;DHT22;1986;52.546;13.428;2022-09-09T08:58:55;19.60;99.90
3944;DHT22;1986;52.546;13.428;2022-09-09T09:04:38;19.40;99.90
3944;DHT22;1986;52.546;13.428;2022-09-09T09:07:14;19.40;99.90
3944;DHT22;1986;52.546;13.428;2022-09-09T09:09:49;19.40;99.90
3944;DHT22;1986;52.546;13.428;2022-09-09T09:12:22;19.50;99.90
3944;DHT22;1986;52.546;13.428;2022-09-09T09:14:50;19.50;99.90
3944;DHT22;1986;52.546;13.428;2022-09-09T09:17:18;19.60;99.90
3944;DHT22;1986;52.546;13.428;2022-09-09T09:19:48;19.90;99.90
3944;DHT22;1986;52.546;13.428;2022-09-09T09:22:18;20.40;99.90
3944;DHT22;1986;52.546;13.428;2022-09-09T09:24:51;20.80;99.90
3944;DHT22;1986;52.546;13.428;2022-09-09T09:27:25;20.90;99.90
3944;DHT22;1986;52.546;13.428;2022-09-09T09:29:57;21.10;99.90
3944;DHT22;1986;52.546;13.428;2022-09-09T09:32:27;20.80;99.90
3944;DHT22;1986;52.546;13.428;2022-09-09T09:34:58;21.30;99.90
3944;DHT22;1986;52.546;13.428;2022-09-09T09:37:29;21.70;99.90
3944;DHT22;1986;52.546;13.428;2022-09-09T09:40:06;22.10;99.90
3944;DHT22;1986;52.546;13.428;2022-09-09T09:42:36;22.20;99.90
3944;DHT22;1986;52.546;13.428;2022-09-09T09:45:17;21.70;99.90
3944;DHT22;1986;52.546;13.428;2022-09-09T09:47:58;21.40;99.90
3944;DHT22;1986;52.546;13.428;2022-09-09T09:50:26;21.30;99.90
3944;DHT22;1986;52.546;13.428;2022-09-09T09:52:54;21.10;99.90
3944;DHT22;1986;52.546;13.428;2022-09-09T09:55:23;21.30;99.90
3944;DHT22;1986;52.546;13.428;2022-09-09T09:57:51;21.40;99.90
3944;DHT22;1986;52.546;13.428;2022-09-09T10:00:21;21.20;99.90
3944;DHT22;1986;52.546;13.428;2022-09-09T10:02:50;21.00;99.90
3944;DHT22;1986;52.546;13.428;2022-09-09T10:05:21;20.90;99.90
3944;DHT22;1986;52.546;13.428;2022-09-09T10:08:09;21.00;99.90
3944;DHT22;1986;52.546;13.428;2022-09-09T10:11:02;21.20;99.90
3944;DHT22;1986;52.546;13.428;2022-09-09T10:13:38;21.10;99.90
3944;DHT22;1986;52.546;13.428;2022-09-09T10:16:18;21.30;99.90
3944;DHT22;1986;52.546;13.428;2022-09-09T10:18:57;21.40;99.90
3944;DHT22;1986;52.546;13.428;2022-09-09T10:21:55;21.60;99.90
3944;DHT22;1986;52.546;13.428;2022-09-09T10:27:31;21.50;99.90
3944;DHT22;1986;52.546;13.428;2022-09-09T10:30:09;21.40;99.90
3944;DHT22;1986;52.546;13.428;2022-09-09T10:32:41;21.80;99.90
3944;DHT22;1986;52.546;13.428;2022-09-09T10:35:25;21.80;99.90
3944;DHT22;1986;52.546;13.428;2022-09-09T10:38:14;22.10;99.90
3944;DHT22;1986;52.546;13.428;2022-09-09T10:40:50;22.30;99.90
3944;DHT22;1986;52.546;13.428;2022-09-09T10:43:38;22.00;99.90
3944;DHT22;1986;52.546;13.428;2022-09-09T10:46:14;22.00;99.90
3944;DHT22;1986;52.546;13.428;2022-09-09T10:48:55;22.10;99.90
3944;DHT22;1986;52.546;13.428;2022-09-09T10:51:28;22.50;99.90
3944;DHT22;1986;52.546;13.428;2022-09-09T10:54:20;22.40;99.90
3944;DHT22;1986;52.546;13.428;2022-09-09T10:56:58;22.60;99.90
3944;DHT22;1986;52.546;13.428;2022-09-09T10:59:28;22.50;99.90
3944;DHT22;1986;52.546;13.428;2022-09-09T11:01:58;22.40;99.90
3944;DHT22;1986;52.546;13.428;2022-09-09T11:04:30;22.70;99.90
3944;DHT22;1986;52.546;13.428;2022-09-09T11:07:06;22.90;99.90
3944;DHT22;1986;52.546;13.428;2022-09-09T11:09:38;23.10;99.90
3944;DHT22;1986;52.546;13.428;2022-09-09T11:12:15;22.80;99.90
3944;DHT22;1986;52.546;13.428;2022-09-09T11:14:48;22.20;99.90
3944;DHT22;1986;52.546;13.428;2022-09-09T11:17:18;22.20;99.90
3944;DHT22;1986;52.546;13.428;2022-09-09T11:19:47;22.30;99.90
3944;DHT22;1986;52.546;13.428;2022-09-09T11:22:20;22.60;99.90
3944;DHT22;1986;52.546;13.428;2022-09-09T11:24:52;22.70;99.90
3944;DHT22;1986;52.546;13.428;2022-09-09T11:27:25;22.80;99.90
3944;DHT22;1986;52.546;13.428;2022-09-09T11:30:17;23.00;99.90
3944;DHT22;1986;52.546;13.428;2022-09-09T11:36:16;22.90;99.90
3944;DHT22;1986;52.546;13.428;2022-09-09T11:38:46;23.20;99.90
3944;DHT22;1986;52.546;13.428;2022-09-09T11:41:14;23.30;99.90
3944;DHT22;1986;52.546;13.428;2022-09-09T11:43:44;23.40;99.90
3944;DHT22;1986;52.546;13.428;2022-09-09T11:46:14;23.20;99.90
3944;DHT22;1986;52.546;13.428;2022-09-09T11:48:44;23.10;99.90
3944;DHT22;1986;52.546;13.428;2022-09-09T11:51:13;23.10;99.90
3944;DHT22;1986;52.546;13.428;2022-09-09T11:53:52;22.70;99.90
3944;DHT22;1986;52.546;13.428;2022-09-09T11:56:27;22.90;99.90
3944;DHT22;1986;52.546;13.428;2022-09-09T11:58:59;23.10;99.90
3944;DHT22;1986;52.546;13.428;2022-09-09T12:01:37;23.30;99.90
3944;DHT22;1986;52.546;13.428;2022-09-09T12:04:13;23.40;99.90
3944;DHT22;1986;52.546;13.428;2022-09-09T12:06:46;23.30;99.90
3944;DHT22;1986;52.546;13.428;2022-09-09T12:09:21;23.00;99.90
3944;DHT22;1986;52.546;13.428;2022-09-09T12:11:50;22.60;99.90
3944;DHT22;1986;52.546;13.428;2022-09-09T12:14:34;22.80;99.90
3944;DHT22;1986;52.546;13.428;2022-09-09T12:17:10;23.20;99.90
3944;DHT22;1986;52.546;13.428;2022-09-09T12:19:44;23.50;99.90
3944;DHT22;1986;52.546;13.428;2022-09-09T12:22:20;23.30;99.90
3944;DHT22;1986;52.546;13.428;2022-09-09T12:24:57;23.50;99.90
3944;DHT22;1986;52.546;13.428;2022-09-09T12:27:31;23.80;99.90
3944;DHT22;1986;52.546;13.428;2022-09-09T12:30:04;24.10;99.90
3944;DHT22;1986;52.546;13.428;2022-09-09T12:32:35;24.20;99.90
3944;DHT22;1986;52.546;13.428;2022-09-09T12:35:08;24.10;99.90
3944;DHT22;1986;52.546;13.428;2022-09-09T12:37:37;23.70;99.90
3944;DHT22;1986;52.546;13.428;2022-09-09T12:40:15;23.20;99.90
3944;DHT22;1986;52.546;13.428;2022-09-09T12:42:45;23.10;99.90
3944;DHT22;1986;52.546;13.428;2022-09-09T12:45:18;23.00;99.90
3944;DHT22;1986;52.546;13.428;2022-09-09T12:47:52;23.00;99.90
3944;DHT22;1986;52.546;13.428;2022-09-09T12:50:24;22.80;99.90
3944;DHT22;1986;52.546;13.428;2022-09-09T12:52:56;22.90;99.90
3944;DHT22;1986;52.546;13.428;2022-09-09T12:55:28;23.00;99.90
3944;DHT22;1986;52.546;13.428;2022-09-09T12:57:57;23.00;99.90
3944;DHT22;1986;52.546;13.428;2022-09-09T13:00:27;23.20;99.90
3944;DHT22;1986;52.546;13.428;2022-09-09T13:02:57;23.30;99.90
3944;DHT22;1986;52.546;13.428;2022-09-09T13:05:27;23.30;99.90
3944;DHT22;1986;52.546;13.428;2022-09-09T13:08:01;23.30;99.90
3944;DHT22;1986;52.546;13.428;2022-09-09T13:10:31;23.40;99.90
3944;DHT22;1986;52.546;13.428;2022-09-09T13:12:59;23.40;99.90
3944;DHT22;1986;52.546;13.428;2022-09-09T13:15:30;23.30;99.90
3944;DHT22;1986;52.546;13.428;2022-09-09T13:17:58;23.40;99.90
3944;DHT22;1986;52.546;13.428;2022-09-09T13:20:27;23.50;99.90
3944;DHT22;1986;52.546;13.428;2022-09-09T13:22:55;23.50;99.90
3944;DHT22;1986;52.546;13.428;2022-09-09T13:25:25;23.30;99.90
3944;DHT22;1986;52.546;13.428;2022-09-09T13:27:55;23.20;99.90
3944;DHT22;1986;52.546;13.428;2022-09-09T13:30:25;23.50;99.90
3944;DHT22;1986;52.546;13.428;2022-09-09T13:33:22;23.70;99.90
3944;DHT22;1986;52.546;13.428;2022-09-09T13:35:52;23.50;99.90
3944;DHT22;1986;52.546;13.428;2022-09-09T13:38:20;23.30;99.90
3944;DHT22;1986;52.546;13.428;2022-09-09T13:40:55;23.30;99.90
3944;DHT22;1986;52.546;13.428;2022-09-09T13:43:24;23.40;99.90
3944;DHT22;1986;52.546;13.428;2022-09-09T13:45:56;23.30;99.90
3944;DHT22;1986;52.546;13.428;2022-09-09T13:48:25;23.20;99.90
3944;DHT22;1986;52.546;13.428;2022-09-09T13:50:57;23.40;99.90
3944;DHT22;1986;52.546;13.428;2022-09-09T13:53:25;23.40;99.90
3944;DHT22;1986;52.546;13.428;2022-09-09T13:55:52;23.50;99.90
3944;DHT22;1986;52.546;13.428;2022-09-09T13:58:20;23.80;99.90
3944;DHT22;1986;52.546;13.428;2022-09-09T14:00:48;24.00;99.90
3944;DHT22;1986;52.546;13.428;2022-09-09T14:03:15;23.80;99.90
3944;DHT22;1986;52.546;13.428;2022-09-09T14:05:46;23.40;99.90
3944;DHT22;1986;52.546;13.428;2022-09-09T14:08:22;23.10;99.90
3944;DHT22;1986;52.546;13.428;2022-09-09T14:10:51;23.00;99.90
3944;DHT22;1986;52.546;13.428;2022-09-09T14:13:19;23.20;99.90
3944;DHT22;1986;52.546;13.428;2022-09-09T14:15:49;23.00;99.90
3944;DHT22;1986;52.546;13.428;2022-09-09T14:18:17;22.90;99.90
3944;DHT22;1986;52.546;13.428;2022-09-09T14:20:48;23.20;99.90
3944;DHT22;1986;52.546;13.428;2022-09-09T14:23:17;23.30;99.90
3944;DHT22;1986;52.546;13.428;2022-09-09T14:25:45;23.10;99.90
3944;DHT22;1986;52.546;13.428;2022-09-09T14:28:15;23.20;99.90
3944;DHT22;1986;52.546;13.428;2022-09-09T14:30:43;23.50;99.90
3944;DHT22;1986;52.546;13.428;2022-09-09T14:33:15;23.60;99.90
3944;DHT22;1986;52.546;13.428;2022-09-09T14:35:42;23.50;99.90
3944;DHT22;1986;52.546;13.428;2022-09-09T14:38:11;23.10;99.90
3944;DHT22;1986;52.546;13.428;2022-09-09T14:40:39;23.00;99.90
3944;DHT22;1986;52.546;13.428;2022-09-09T14:43:09;22.90;99.90
3944;DHT22;1986;52.546;13.428;2022-09-09T14:45:41;22.90;99.90
3944;DHT22;1986;52.546;13.428;2022-09-09T14:48:14;22.70;99.90
3944;DHT22;1986;52.546;13.428;2022-09-09T14:50:41;22.70;99.90
3944;DHT22;1986;52.546;13.428;2022-09-09T14:53:18;22.70;99.90
3944;DHT22;1986;52.546;13.428;2022-09-09T14:55:47;22.80;99.90
3944;DHT22;1986;52.546;13.428;2022-09-09T14:58:14;22.80;99.90
3944;DHT22;1986;52.546;13.428;2022-09-09T15:00:41;22.80;99.90
3944;DHT22;1986;52.546;13.428;2022-09-09T15:03:08;22.70;99.90
3944;DHT22;1986;52.546;13.428;2022-09-09T15:05:36;22.70;99.90
3944;DHT22;1986;52.546;13.428;2022-09-09T15:08:03;22.60;99.90
3944;DHT22;1986;52.546;13.428;2022-09-09T15:10:33;22.60;99.90
3944;DHT22;1986;52.546;13.428;2022-09-09T15:13:01;22.70;99.90
3944;DHT22;1986;52.546;13.428;2022-09-09T15:15:30;22.70;99.90
3944;DHT22;1986;52.546;13.428;2022-09-09T15:17:59;22.60;99.90
3944;DHT22;1986;52.546;13.428;2022-09-09T15:20:26;22.50;99.90
3944;DHT22;1986;52.546;13.428;2022-09-09T15:22:53;22.50;99.90
3944;DHT22;1986;52.546;13.428;2022-09-09T15:25:21;22.70;99.90
3944;DHT22;1986;52.546;13.428;2022-09-09T15:27:50;22.80;99.90
3944;DHT22;1986;52.546;13.428;2022-09-09T15:30:16;22.90;99.90
3944;DHT22;1986;52.546;13.428;2022-09-09T15:32:43;23.00;99.90
3944;DHT22;1986;52.546;13.428;2022-09-09T15:35:10;23.10;99.90
3944;DHT22;1986;52.546;13.428;2022-09-09T15:37:37;23.20;99.90
3944;DHT22;1986;52.546;13.428;2022-09-09T15:40:05;23.30;99.90
3944;DHT22;1986;52.546;13.428;2022-09-09T15:42:32;23.00;99.90
3944;DHT22;1986;52.546;13.428;2022-09-09T15:45:00;22.90;99.90
3944;DHT22;1986;52.546;13.428;2022-09-09T15:47:27;22.70;99.90
3944;DHT22;1986;52.546;13.428;2022-09-09T15:49:54;22.50;99.90
3944;DHT22;1986;52.546;13.428;2022-09-09T15:52:24;22.30;99.90
3944;DHT22;1986;52.546;13.428;2022-09-09T15:54:53;22.10;99.90
3944;DHT22;1986;52.546;13.428;2022-09-09T15:57:19;22.00;99.90
3944;DHT22;1986;52.546;13.428;2022-09-09T15:59:50;22.00;99.90
3944;DHT22;1986;52.546;13.428;2022-09-09T16:02:19;22.00;99.90
3944;DHT22;1986;52.546;13.428;2022-09-09T16:04:47;21.90;99.90
3944;DHT22;1986;52.546;13.428;2022-09-09T16:07:14;22.00;99.90
3944;DHT22;1986;52.546;13.428;2022-09-09T16:09:43;21.90;99.90
3944;DHT22;1986;52.546;13.428;2022-09-09T16:12:12;22.00;99.90
3944;DHT22;1986;52.546;13.428;2022-09-09T16:14:40;22.10;99.90
3944;DHT22;1986;52.546;13.428;2022-09-09T16:17:10;22.00;99.90
3944;DHT22;1986;52.546;13.428;2022-09-09T16:19:39;22.00;99.90